Justo Sierra — XCSN — position and weather

sailwx.info

Track history (hours):
 
Tides and Currents Weather Stations Pressure Air Temp Water Temp Dewpoint Dewpoint Depression Visibility Wind Speed Wind Dir Waves Ship Positions

Oceanographic research ship Justo Sierra (Mexico)

Detailed information on ship capabilities available from University of Delaware's Ocean Information Center.

Last reported at 2019-Apr-16 06:12 UTC. Time now 2019-Apr-18 10:45 UTC.
Position N 19°36' W 096°10'.

Length 30 m.

MMSI: 345030040.

Date/timePositionNaut miles runAvg speedWind from/ knotsBaromVisibWave heightAir tempDewpointWater temp
2019-Apr-16 06:12N 19°36' W 096°10'210.0
2019-Apr-16 06:00N 19°34' W 096°09'510.0
2019-Apr-16 05:30N 19°30' W 096°06'5 9.9
2019-Apr-16 05:00N 19°26' W 096°03'510.0
2019-Apr-16 04:30N 19°21' W 096°00'5 9.9
2019-Apr-16 04:00N 19°17' W 095°58'4 8.4
2019-Apr-16 03:30N 19°14' W 095°55'510.4
2019-Apr-16 03:00N 19°14' W 095°49'6 9.4
2019-Apr-16 02:18N 19°12' W 095°43'3 9.7
2019-Apr-16 01:58N 19°10' W 095°40'4 9.8
2019-Apr-16 01:30N 19°07' W 095°37'1310.1
2019-Apr-16 00:10N 18°57' W 095°26'2 9.9
2019-Apr-16 00:00N 18°56' W 095°25'3 5.5
2019-Apr-15 23:31N 18°54' W 095°23'0 0.5
2019-Apr-15 23:00N 18°54' W 095°23'  
2019-Apr-11 11:57N 22°26' W 096°29'1310.3
2019-Apr-11 10:39N 22°13' W 096°35'210.4
2019-Apr-11 10:28N 22°12' W 096°36'510.6
2019-Apr-11 10:00N 22°07' W 096°39'510.5
2019-Apr-11 09:29N 22°03' W 096°42'510.6
2019-Apr-11 09:00N 21°58' W 096°44'510.0
2019-Apr-11 08:30N 21°54' W 096°47'510.9
2019-Apr-11 08:00N 21°49' W 096°50'610.9
2019-Apr-11 07:28N 21°44' W 096°52'1111.0
2019-Apr-11 06:27N 21°34' W 096°58'510.9
2019-Apr-11 05:59N 21°29' W 096°60'1210.6
2019-Apr-11 04:49N 21°18' W 097°05'310.3
2019-Apr-11 04:30N 21°15' W 097°07'510.2
2019-Apr-11 04:00N 21°10' W 097°09'610.3
2019-Apr-11 03:26N 21°05' W 097°12'510.6
2019-Apr-11 02:59N 21°01' W 097°14'3 6.1
2019-Apr-11 02:29N 20°59' W 097°17'3 2.0
2019-Apr-11 00:57N 20°58' W 097°20'0 0.0
2019-Apr-11 00:09N 20°58' W 097°20'0 0.0
2019-Apr-10 23:12N 20°58' W 097°20'0 0.0
2019-Apr-10 22:58N 20°58' W 097°20'0 0.0
2019-Apr-10 22:30N 20°58' W 097°20'0 0.0
2019-Apr-10 21:59N 20°58' W 097°20'0 0.0
2019-Apr-10 19:24N 20°58' W 097°20'0 0.0
2019-Apr-10 18:45N 20°58' W 097°20'0 0.0
2019-Apr-10 18:20N 20°58' W 097°20'0 0.0
2019-Apr-10 17:41N 20°58' W 097°20'0 0.0
2019-Apr-10 17:21N 20°58' W 097°20'0 0.0
2019-Apr-10 13:24N 20°58' W 097°20'0 0.0
2019-Apr-10 11:40N 20°58' W 097°20'0 0.0
2019-Apr-10 10:05N 20°58' W 097°20'0 0.0
2019-Apr-10 09:19N 20°58' W 097°20'0 0.0
2019-Apr-10 08:51N 20°58' W 097°20'0 0.0
2019-Apr-10 08:28N 20°58' W 097°20'  
Track history (hours):
 
Tides and Currents Weather Stations Pressure Air Temp Water Temp Dewpoint Dewpoint Depression Visibility Wind Speed Wind Dir Waves Ship Positions

Oceanographic research ship Justo Sierra (Mexico)

Detailed information on ship capabilities available from University of Delaware's Ocean Information Center.

Last reported at 2019-Apr-16 06:12 UTC. Time now 2019-Apr-18 10:45 UTC.
Position N 19°36' W 096°10'.

Length 30 m.

MMSI: 345030040.

Date/timePositionNaut miles runAvg speedWind from/ knotsBaromVisibWave heightAir tempDewpointWater temp
2019-Apr-16 06:12N 19°36' W 096°10'210.0
2019-Apr-16 06:00N 19°34' W 096°09'510.0
2019-Apr-16 05:30N 19°30' W 096°06'5 9.9
2019-Apr-16 05:00N 19°26' W 096°03'510.0
2019-Apr-16 04:30N 19°21' W 096°00'5 9.9
2019-Apr-16 04:00N 19°17' W 095°58'4 8.4
2019-Apr-16 03:30N 19°14' W 095°55'510.4
2019-Apr-16 03:00N 19°14' W 095°49'6 9.4
2019-Apr-16 02:18N 19°12' W 095°43'3 9.7
2019-Apr-16 01:58N 19°10' W 095°40'4 9.8
2019-Apr-16 01:30N 19°07' W 095°37'1310.1
2019-Apr-16 00:10N 18°57' W 095°26'2 9.9
2019-Apr-16 00:00N 18°56' W 095°25'3 5.5
2019-Apr-15 23:31N 18°54' W 095°23'0 0.5
2019-Apr-15 23:00N 18°54' W 095°23'  
2019-Apr-11 11:57N 22°26' W 096°29'1310.3
2019-Apr-11 10:39N 22°13' W 096°35'210.4
2019-Apr-11 10:28N 22°12' W 096°36'510.6
2019-Apr-11 10:00N 22°07' W 096°39'510.5
2019-Apr-11 09:29N 22°03' W 096°42'510.6
2019-Apr-11 09:00N 21°58' W 096°44'510.0
2019-Apr-11 08:30N 21°54' W 096°47'510.9
2019-Apr-11 08:00N 21°49' W 096°50'610.9
2019-Apr-11 07:28N 21°44' W 096°52'1111.0
2019-Apr-11 06:27N 21°34' W 096°58'510.9
2019-Apr-11 05:59N 21°29' W 096°60'1210.6
2019-Apr-11 04:49N 21°18' W 097°05'310.3
2019-Apr-11 04:30N 21°15' W 097°07'510.2
2019-Apr-11 04:00N 21°10' W 097°09'610.3
2019-Apr-11 03:26N 21°05' W 097°12'510.6
2019-Apr-11 02:59N 21°01' W 097°14'3 6.1
2019-Apr-11 02:29N 20°59' W 097°17'3 2.0
2019-Apr-11 00:57N 20°58' W 097°20'0 0.0
2019-Apr-11 00:09N 20°58' W 097°20'0 0.0
2019-Apr-10 23:12N 20°58' W 097°20'0 0.0
2019-Apr-10 22:58N 20°58' W 097°20'0 0.0
2019-Apr-10 22:30N 20°58' W 097°20'0 0.0
2019-Apr-10 21:59N 20°58' W 097°20'0 0.0
2019-Apr-10 19:24N 20°58' W 097°20'0 0.0
2019-Apr-10 18:45N 20°58' W 097°20'0 0.0
2019-Apr-10 18:20N 20°58' W 097°20'0 0.0
2019-Apr-10 17:41N 20°58' W 097°20'0 0.0
2019-Apr-10 17:21N 20°58' W 097°20'0 0.0
2019-Apr-10 13:24N 20°58' W 097°20'0 0.0
2019-Apr-10 11:40N 20°58' W 097°20'0 0.0
2019-Apr-10 10:05N 20°58' W 097°20'0 0.0
2019-Apr-10 09:19N 20°58' W 097°20'0 0.0
2019-Apr-10 08:51N 20°58' W 097°20'0 0.0
2019-Apr-10 08:28N 20°58' W 097°20'  

Dump ship's entire track history